Weather at Adolfo Suárez Madrid–Barajas Airport

Public forecast

Using degrees Celsius for public forecast. Weather courtesy of forecast.io.

Current aviation weather report (METAR) for Adolfo Suárez Madrid–Barajas Airport

Retrieved 2020/10/31 00:30 UTC (0 seconds ago):

LEMD 310030Z 01003KT CAVOK 08/08 Q1027 NOSIG

Aviation forecast (TAF) for Adolfo Suárez Madrid–Barajas Airport

Retrieved 2020-10-31 00:27 UTC (0 seconds ago):

TAF LEMD 302300Z 3100/0106 VRB04KT CAVOK TX22/3115Z TN05/3106Z TEMPO 3100/3107 01005KT PROB30 TEMPO 3113/3118 20007KT